createdAt,value
2019-03-21T00:02:28.397Z,10.50
2019-03-21T00:04:59.014Z,10.50
2019-03-21T00:07:28.487Z,10.50
2019-03-21T00:10:34.039Z,10.50
2019-03-21T00:13:03.488Z,10.50
2019-03-21T00:15:36.998Z,10.50
2019-03-21T00:18:09.494Z,10.50
2019-03-21T00:20:39.241Z,10.50
2019-03-21T00:23:08.986Z,10.50
2019-03-21T00:25:38.609Z,10.40
2019-03-21T00:28:08.083Z,10.40
2019-03-21T00:30:37.555Z,10.40
2019-03-21T00:33:07.179Z,10.40
2019-03-21T00:35:38.604Z,10.40
2019-03-21T00:38:08.049Z,10.50
2019-03-21T00:40:39.881Z,10.50
2019-03-21T00:43:10.610Z,10.40
2019-03-21T00:45:40.250Z,10.50
2019-03-21T00:48:11.762Z,10.40
2019-03-21T00:50:41.680Z,10.40
2019-03-21T00:53:11.486Z,10.40
2019-03-21T00:55:41.631Z,10.30
2019-03-21T00:58:11.147Z,10.30
2019-03-21T01:00:46.394Z,10.30
2019-03-21T01:03:16.034Z,10.30
2019-03-21T01:05:46.399Z,10.30
2019-03-21T01:08:15.945Z,10.30
2019-03-21T01:10:45.519Z,10.30
2019-03-21T01:13:15.804Z,10.20
2019-03-21T01:15:45.539Z,10.20
2019-03-21T01:18:15.071Z,10.10
2019-03-21T01:20:44.574Z,10.00
2019-03-21T01:23:14.039Z,10.00
2019-03-21T01:25:46.640Z,10.00
2019-03-21T01:28:16.115Z,10.00
2019-03-21T01:30:46.021Z,10.00
2019-03-21T01:33:15.734Z,10.00
2019-03-21T01:35:45.535Z,10.00
2019-03-21T01:38:15.090Z,10.00
2019-03-21T01:40:45.496Z,10.00
2019-03-21T01:43:15.048Z,10.00
2019-03-21T01:45:44.537Z,10.00
2019-03-21T01:48:14.003Z,10.10
2019-03-21T01:50:43.579Z,10.10
2019-03-21T01:53:14.110Z,10.20
2019-03-21T01:55:43.958Z,10.20
2019-03-21T01:58:13.725Z,10.20
2019-03-21T02:00:43.263Z,10.10
2019-03-21T02:03:12.816Z,10.10
2019-03-21T02:05:42.339Z,10.00
2019-03-21T02:08:11.866Z,10.10
2019-03-21T02:10:41.339Z,10.00
2019-03-21T02:13:10.803Z,10.00
2019-03-21T02:15:40.873Z,10.00
2019-03-21T02:18:10.622Z,10.00
2019-03-21T02:20:40.110Z,10.00
2019-03-21T02:23:09.843Z,10.00
2019-03-21T02:25:39.336Z,9.90
2019-03-21T02:28:09.463Z,10.00
2019-03-21T02:30:39.112Z,9.90
2019-03-21T02:33:15.283Z,9.90
2019-03-21T02:35:44.966Z,9.90
2019-03-21T02:38:14.828Z,10.00
2019-03-21T02:40:44.404Z,9.90
2019-03-21T02:43:13.854Z,9.90
2019-03-21T02:45:43.403Z,10.00
2019-03-21T02:48:13.004Z,10.00
2019-03-21T02:50:42.576Z,10.00
2019-03-21T02:53:11.964Z,10.00
2019-03-21T02:55:41.524Z,10.00
2019-03-21T02:58:11.446Z,10.00
2019-03-21T03:00:40.938Z,10.00
2019-03-21T03:03:10.907Z,10.00
2019-03-21T03:05:40.559Z,10.00
2019-03-21T03:08:10.051Z,10.00
2019-03-21T03:10:42.283Z,9.90
2019-03-21T03:13:11.752Z,9.90
2019-03-21T03:15:41.418Z,9.90
2019-03-21T03:18:11.084Z,9.90
2019-03-21T03:20:40.714Z,9.80
2019-03-21T03:23:10.133Z,9.80
2019-03-21T03:25:39.862Z,9.80
2019-03-21T03:28:15.135Z,9.90
2019-03-21T03:30:44.776Z,9.90
2019-03-21T03:33:14.218Z,9.80
2019-03-21T03:35:44.143Z,9.90
2019-03-21T03:38:13.665Z,9.80
2019-03-21T03:40:45.352Z,9.80
2019-03-21T03:43:15.011Z,9.90
2019-03-21T03:45:44.562Z,9.90
2019-03-21T03:48:14.213Z,9.80
2019-03-21T03:50:43.725Z,9.90
2019-03-21T03:53:13.665Z,9.90
2019-03-21T03:55:43.368Z,9.90
2019-03-21T03:58:14.276Z,10.00
2019-03-21T04:00:43.738Z,10.00
2019-03-21T04:03:13.214Z,10.00
2019-03-21T04:05:42.750Z,10.00
2019-03-21T04:08:13.199Z,10.10
2019-03-21T04:10:43.948Z,10.10
2019-03-21T04:13:13.575Z,10.10
2019-03-21T04:15:52.781Z,10.10
2019-03-21T04:18:14.546Z,10.10
2019-03-21T04:20:45.354Z,10.20
2019-03-21T04:23:15.836Z,10.30
2019-03-21T04:25:51.308Z,10.30
2019-03-21T04:28:20.790Z,10.30
2019-03-21T04:30:50.260Z,10.30
2019-03-21T04:33:22.456Z,10.30
2019-03-21T04:35:50.920Z,10.30
2019-03-21T04:38:20.421Z,10.40
2019-03-21T04:40:49.945Z,10.30
2019-03-21T04:43:19.508Z,10.30
2019-03-21T04:45:49.011Z,10.20
2019-03-21T04:48:18.489Z,10.20
2019-03-21T04:50:47.906Z,10.20
2019-03-21T04:53:17.386Z,10.20
2019-03-21T04:55:46.920Z,10.20
2019-03-21T04:58:16.387Z,10.20
2019-03-21T05:00:45.963Z,10.20
2019-03-21T05:03:15.523Z,10.20
2019-03-21T05:05:46.453Z,10.20
2019-03-21T05:08:16.004Z,10.10
2019-03-21T05:10:45.763Z,10.20
2019-03-21T05:13:15.326Z,10.20
2019-03-21T05:15:44.827Z,10.10
2019-03-21T05:18:17.462Z,10.10
2019-03-21T05:20:47.182Z,10.10
2019-03-21T05:23:16.659Z,10.10
2019-03-21T05:25:46.126Z,10.10
2019-03-21T05:28:15.620Z,10.00
2019-03-21T05:30:51.818Z,10.00
2019-03-21T05:33:21.307Z,10.00
2019-03-21T05:35:50.827Z,9.90
2019-03-21T05:38:20.428Z,10.00
2019-03-21T05:40:49.983Z,10.00
2019-03-21T05:43:25.710Z,9.90
2019-03-21T05:45:55.170Z,9.90
2019-03-21T05:48:24.576Z,9.90
2019-03-21T05:50:54.093Z,9.90
2019-03-21T05:53:23.909Z,9.90
2019-03-21T05:55:53.563Z,10.00
2019-03-21T05:58:23.387Z,9.90
2019-03-21T06:00:53.111Z,10.00
2019-03-21T06:03:25.917Z,9.90
2019-03-21T06:05:59.310Z,9.90
2019-03-21T06:08:31.766Z,9.90
2019-03-21T06:11:01.219Z,9.90
2019-03-21T06:13:30.814Z,9.90
2019-03-21T06:16:08.691Z,9.90
2019-03-21T06:19:11.583Z,9.90
2019-03-21T06:22:07.292Z,10.00
2019-03-21T06:24:52.590Z,10.00
2019-03-21T06:27:30.211Z,10.00
2019-03-21T06:29:59.931Z,10.00
2019-03-21T06:32:29.447Z,10.00
2019-03-21T06:34:58.973Z,10.10
2019-03-21T06:37:29.027Z,10.10
2019-03-21T06:39:59.315Z,10.10
2019-03-21T06:42:29.190Z,10.10
2019-03-21T06:44:58.674Z,10.10
2019-03-21T06:47:28.239Z,10.10
2019-03-21T06:49:58.318Z,10.20
2019-03-21T06:52:27.783Z,10.20
2019-03-21T06:54:59.762Z,10.20
2019-03-21T06:57:29.686Z,10.20
2019-03-21T06:59:59.169Z,10.20
2019-03-21T07:02:28.706Z,10.30
2019-03-21T07:04:58.218Z,10.30
2019-03-21T07:07:27.984Z,10.30
2019-03-21T07:09:57.765Z,10.30
2019-03-21T07:12:27.529Z,10.40
2019-03-21T07:14:57.282Z,10.40
2019-03-21T07:17:26.755Z,10.40
2019-03-21T07:19:56.532Z,10.40
2019-03-21T07:22:26.002Z,10.50
2019-03-21T07:24:55.530Z,10.50
2019-03-21T07:27:25.307Z,10.50
2019-03-21T07:29:54.774Z,10.50
2019-03-21T07:32:33.123Z,10.60
2019-03-21T07:34:55.471Z,10.60
2019-03-21T07:37:25.054Z,10.60
2019-03-21T07:39:54.595Z,10.60
2019-03-21T07:42:24.093Z,10.60
2019-03-21T07:44:53.575Z,10.60
2019-03-21T07:47:23.436Z,10.70
2019-03-21T07:49:52.909Z,10.80
2019-03-21T07:52:22.381Z,10.80
2019-03-21T07:54:51.842Z,10.80
2019-03-21T07:57:21.587Z,10.80
2019-03-21T07:59:51.049Z,10.80
2019-03-21T08:02:21.087Z,10.80
2019-03-21T08:04:50.549Z,10.80
2019-03-21T08:07:20.031Z,10.90
2019-03-21T08:09:50.821Z,11.00
2019-03-21T08:12:22.404Z,11.00
2019-03-21T08:14:51.866Z,11.10
2019-03-21T08:17:21.340Z,11.10
2019-03-21T08:19:50.827Z,11.20
2019-03-21T08:22:20.307Z,11.30
2019-03-21T08:24:49.753Z,11.40
2019-03-21T08:27:19.234Z,11.60
2019-03-21T08:29:48.772Z,11.70
2019-03-21T08:32:18.293Z,11.80
2019-03-21T08:34:47.741Z,11.90
2019-03-21T08:37:17.262Z,11.90
2019-03-21T08:39:47.015Z,11.80
2019-03-21T08:42:16.523Z,11.80
2019-03-21T08:44:46.584Z,11.80
2019-03-21T08:47:16.103Z,11.80
2019-03-21T08:49:45.920Z,11.90
2019-03-21T08:52:15.441Z,12.00
2019-03-21T08:54:44.903Z,12.10
2019-03-21T08:57:14.719Z,12.20
2019-03-21T08:59:44.490Z,12.40
2019-03-21T09:02:13.901Z,12.40
2019-03-21T09:04:43.360Z,12.50
2019-03-21T09:07:13.094Z,12.60
2019-03-21T09:09:42.574Z,12.70
2019-03-21T09:12:12.047Z,12.80
2019-03-21T09:14:41.615Z,12.80
2019-03-21T09:17:11.750Z,12.80
2019-03-21T09:19:41.146Z,12.70
2019-03-21T09:22:11.027Z,12.60
2019-03-21T09:24:40.548Z,12.60
2019-03-21T09:27:09.977Z,12.50
2019-03-21T09:29:39.464Z,12.50
2019-03-21T09:32:09.012Z,12.50
2019-03-21T09:34:38.541Z,12.50
2019-03-21T09:37:07.977Z,12.50
2019-03-21T09:39:37.787Z,12.60
2019-03-21T09:42:07.702Z,12.60
2019-03-21T09:44:37.211Z,12.60
2019-03-21T09:47:06.703Z,12.60
2019-03-21T09:49:36.179Z,12.70
2019-03-21T09:52:05.731Z,12.80
2019-03-21T09:54:35.208Z,12.90
2019-03-21T09:57:05.095Z,12.90
2019-03-21T09:59:34.648Z,12.90
2019-03-21T10:02:23.092Z,13.00
2019-03-21T10:04:53.133Z,13.00
2019-03-21T10:07:22.850Z,13.10
2019-03-21T10:09:52.611Z,13.20
2019-03-21T10:12:22.077Z,13.20
2019-03-21T10:14:51.863Z,13.20
2019-03-21T10:17:21.611Z,13.20
2019-03-21T10:19:51.915Z,13.20
2019-03-21T10:22:21.464Z,13.30
2019-03-21T10:24:50.958Z,13.30
2019-03-21T10:27:20.486Z,13.30
2019-03-21T10:29:49.899Z,13.30
2019-03-21T10:32:19.383Z,13.30
2019-03-21T10:34:49.210Z,13.40
2019-03-21T10:37:18.817Z,13.50
2019-03-21T10:39:48.332Z,13.60
2019-03-21T10:42:17.810Z,13.60
2019-03-21T10:44:47.311Z,13.50
2019-03-21T10:47:16.802Z,13.50
2019-03-21T10:49:46.263Z,13.50
2019-03-21T10:52:15.783Z,13.50
2019-03-21T10:54:45.256Z,13.50
2019-03-21T10:57:14.725Z,13.40
2019-03-21T10:59:44.523Z,13.30
2019-03-21T11:02:14.037Z,13.20
2019-03-21T11:04:43.574Z,13.30
2019-03-21T11:07:11.198Z,13.30
2019-03-21T11:09:40.696Z,13.40
2019-03-21T11:12:10.586Z,13.40
2019-03-21T11:14:40.394Z,13.50
2019-03-21T11:17:10.280Z,13.60
2019-03-21T11:19:39.899Z,13.60
2019-03-21T11:22:09.670Z,13.60
2019-03-21T11:24:39.474Z,13.40
2019-03-21T11:27:09.219Z,13.30
2019-03-21T11:29:38.760Z,13.20
2019-03-21T11:32:08.259Z,13.30
2019-03-21T11:34:37.726Z,13.30
2019-03-21T11:37:07.220Z,13.30
2019-03-21T11:39:36.705Z,13.30
2019-03-21T11:42:06.215Z,13.30
2019-03-21T11:44:36.064Z,13.40
2019-03-21T11:47:05.679Z,13.50
2019-03-21T11:49:35.174Z,13.50
2019-03-21T11:52:04.823Z,13.50
2019-03-21T11:54:34.327Z,13.60
2019-03-21T11:57:03.899Z,13.60
2019-03-21T11:59:46.481Z,13.70
2019-03-21T12:02:04.571Z,13.70
2019-03-21T12:04:34.038Z,13.80
2019-03-21T12:07:03.611Z,13.80
2019-03-21T12:09:33.075Z,13.80
2019-03-21T12:12:02.910Z,13.70
2019-03-21T12:14:32.590Z,13.70
2019-03-21T12:17:02.111Z,13.80
2019-03-21T12:19:31.581Z,13.80
2019-03-21T12:22:01.078Z,13.90
2019-03-21T12:24:30.615Z,14.00
2019-03-21T12:27:00.968Z,14.20
2019-03-21T12:29:30.467Z,14.30
2019-03-21T12:31:59.937Z,14.30
2019-03-21T12:34:29.339Z,14.30
2019-03-21T12:36:58.843Z,14.20
2019-03-21T12:39:29.109Z,14.20
2019-03-21T12:41:59.001Z,14.10
2019-03-21T12:44:28.798Z,14.10
2019-03-21T12:46:58.340Z,14.10
2019-03-21T12:49:27.829Z,14.00
2019-03-21T12:51:57.271Z,14.00
2019-03-21T12:54:26.819Z,13.90
2019-03-21T12:56:56.277Z,13.80
2019-03-21T12:59:25.764Z,13.80
2019-03-21T13:01:55.238Z,13.90
2019-03-21T13:04:24.786Z,13.90
2019-03-21T13:06:54.245Z,13.90
2019-03-21T13:09:23.823Z,14.00
2019-03-21T13:11:53.407Z,14.00
2019-03-21T13:14:22.883Z,14.10
2019-03-21T13:16:52.346Z,14.20
2019-03-21T13:19:22.128Z,14.10
2019-03-21T13:21:51.682Z,14.10
2019-03-21T13:24:21.511Z,14.10
2019-03-21T13:26:51.010Z,14.10
2019-03-21T13:29:20.543Z,14.20
2019-03-21T13:31:50.014Z,14.30
2019-03-21T13:34:19.567Z,14.20
2019-03-21T13:36:49.117Z,14.30
2019-03-21T13:39:18.624Z,14.30
2019-03-21T13:41:48.422Z,14.30
2019-03-21T13:44:17.966Z,14.50
2019-03-21T13:46:47.422Z,14.50
2019-03-21T13:49:17.207Z,14.60
2019-03-21T13:51:46.750Z,14.70
2019-03-21T13:54:16.251Z,14.90
2019-03-21T13:56:46.226Z,15.20
2019-03-21T13:59:15.760Z,15.50
2019-03-21T14:01:45.441Z,15.60
2019-03-21T14:04:14.952Z,15.70
2019-03-21T14:06:44.565Z,15.90
2019-03-21T14:09:14.463Z,15.80
2019-03-21T14:11:43.854Z,15.40
2019-03-21T14:14:13.467Z,14.90
2019-03-21T14:16:42.940Z,14.80
2019-03-21T14:19:12.428Z,14.70
2019-03-21T14:21:41.906Z,14.70
2019-03-21T14:24:11.468Z,14.70
2019-03-21T14:26:41.249Z,14.40
2019-03-21T14:29:12.953Z,14.30
2019-03-21T14:31:42.051Z,14.20
2019-03-21T14:34:11.823Z,14.20
2019-03-21T14:36:41.547Z,14.20
2019-03-21T14:39:11.385Z,14.30
2019-03-21T14:41:40.871Z,14.30
2019-03-21T14:44:10.644Z,14.30
2019-03-21T14:46:40.106Z,14.30
2019-03-21T14:49:09.651Z,14.30
2019-03-21T14:51:39.647Z,14.30
2019-03-21T14:54:09.127Z,14.30
2019-03-21T14:56:38.670Z,14.30
2019-03-21T14:59:08.074Z,14.20
2019-03-21T15:01:37.471Z,14.20
2019-03-21T15:04:07.271Z,14.10
2019-03-21T15:06:36.916Z,14.10
2019-03-21T15:09:07.595Z,14.10
2019-03-21T15:11:37.291Z,14.20
2019-03-21T15:14:07.000Z,14.20
2019-03-21T15:16:36.494Z,14.10
2019-03-21T15:19:05.968Z,14.10
2019-03-21T15:21:35.469Z,14.10
2019-03-21T15:24:05.079Z,14.10
2019-03-21T15:26:34.867Z,14.10
2019-03-21T15:29:04.404Z,14.00
2019-03-21T15:31:33.962Z,14.10
2019-03-21T15:34:03.615Z,14.10
2019-03-21T15:36:33.313Z,14.10
2019-03-21T15:39:02.952Z,14.10
2019-03-21T15:41:32.479Z,14.20
2019-03-21T15:44:02.439Z,14.10
2019-03-21T15:46:31.923Z,14.00
2019-03-21T15:49:01.454Z,14.00
2019-03-21T15:51:30.947Z,14.00
2019-03-21T15:54:00.860Z,14.00
2019-03-21T15:56:30.351Z,14.00
2019-03-21T15:58:59.917Z,14.00
2019-03-21T16:01:29.476Z,13.80
2019-03-21T16:03:59.201Z,13.90
2019-03-21T16:06:28.694Z,13.80
2019-03-21T16:08:58.145Z,13.90
2019-03-21T16:11:27.887Z,13.80
2019-03-21T16:13:57.357Z,13.80
2019-03-21T16:16:26.866Z,13.90
2019-03-21T16:18:56.611Z,13.70
2019-03-21T16:21:26.348Z,13.60
2019-03-21T16:24:04.450Z,13.50
2019-03-21T16:26:27.073Z,13.30
2019-03-21T16:28:56.467Z,13.30
2019-03-21T16:31:25.959Z,13.20
2019-03-21T16:33:55.463Z,13.10
2019-03-21T16:36:24.976Z,13.00
2019-03-21T16:38:54.454Z,12.90
2019-03-21T16:41:24.027Z,12.90
2019-03-21T16:43:53.530Z,12.80
2019-03-21T16:46:23.095Z,12.70
2019-03-21T16:48:52.539Z,12.60
2019-03-21T16:51:22.094Z,12.40
2019-03-21T16:53:51.559Z,12.30
2019-03-21T16:56:21.106Z,12.20
2019-03-21T16:58:50.598Z,12.10
2019-03-21T17:01:20.423Z,11.90
2019-03-21T17:03:50.060Z,11.70
2019-03-21T17:06:19.598Z,11.50
2019-03-21T17:08:49.603Z,11.30
2019-03-21T17:11:19.263Z,11.20
2019-03-21T17:13:48.745Z,11.00
2019-03-21T17:16:18.249Z,10.80
2019-03-21T17:18:48.006Z,10.60
2019-03-21T17:21:17.582Z,10.50
2019-03-21T17:23:47.070Z,10.30
2019-03-21T17:26:16.530Z,10.20
2019-03-21T17:28:45.939Z,10.00
2019-03-21T17:31:15.398Z,9.90
2019-03-21T17:33:44.894Z,9.90
2019-03-21T17:36:14.359Z,10.00
2019-03-21T17:38:43.904Z,10.10
2019-03-21T17:41:13.391Z,10.20
2019-03-21T17:43:42.823Z,10.30
2019-03-21T17:46:12.332Z,10.20
2019-03-21T17:48:41.814Z,10.10
2019-03-21T17:51:11.366Z,10.00
2019-03-21T17:53:40.778Z,9.90
2019-03-21T17:56:10.160Z,9.70
2019-03-21T17:58:39.642Z,9.50
2019-03-21T18:01:09.731Z,9.30
2019-03-21T18:03:39.353Z,9.10
2019-03-21T18:06:09.838Z,8.90
2019-03-21T18:08:39.395Z,8.80
2019-03-21T18:11:09.191Z,8.70
2019-03-21T18:13:39.063Z,8.50
2019-03-21T18:16:08.719Z,8.50
2019-03-21T18:18:38.285Z,8.40
2019-03-21T18:21:07.665Z,8.30
2019-03-21T18:23:37.554Z,8.20
2019-03-21T18:26:07.283Z,8.10
2019-03-21T18:28:36.803Z,8.10
2019-03-21T18:31:06.339Z,8.10
2019-03-21T18:33:35.853Z,8.00
2019-03-21T18:36:05.456Z,8.00
2019-03-21T18:38:34.961Z,7.90
2019-03-21T18:41:04.596Z,7.80
2019-03-21T18:43:34.155Z,7.80
2019-03-21T18:46:03.669Z,7.70
2019-03-21T18:48:33.153Z,7.60
2019-03-21T18:51:02.953Z,7.60
2019-03-21T18:53:32.780Z,7.60
2019-03-21T18:56:02.645Z,7.50
2019-03-21T18:58:32.434Z,7.40
2019-03-21T19:01:02.183Z,7.30
2019-03-21T19:03:31.983Z,7.30
2019-03-21T19:06:01.758Z,7.20
2019-03-21T19:08:31.238Z,7.20
2019-03-21T19:11:00.640Z,7.10
2019-03-21T19:13:30.111Z,7.00
2019-03-21T19:15:59.575Z,7.00
2019-03-21T19:18:29.496Z,7.10
2019-03-21T19:20:58.958Z,7.00
2019-03-21T19:23:28.447Z,7.00
2019-03-21T19:25:58.184Z,7.00
2019-03-21T19:28:27.659Z,6.90
2019-03-21T19:30:57.105Z,6.90
2019-03-21T19:33:26.601Z,6.80
2019-03-21T19:35:56.368Z,6.80
2019-03-21T19:38:25.871Z,6.80
2019-03-21T19:40:55.322Z,6.80
2019-03-21T19:43:24.819Z,6.70
2019-03-21T19:45:54.588Z,6.70
2019-03-21T19:48:24.427Z,6.60
2019-03-21T19:50:54.215Z,6.60
2019-03-21T19:53:23.727Z,6.60
2019-03-21T19:55:53.171Z,6.70
2019-03-21T19:58:22.634Z,7.00
2019-03-21T20:00:52.200Z,7.20
2019-03-21T20:03:21.747Z,7.20
2019-03-21T20:05:59.951Z,7.10
2019-03-21T20:08:22.716Z,6.90
2019-03-21T20:10:52.205Z,6.70
2019-03-21T20:13:21.714Z,6.60
2019-03-21T20:15:51.238Z,6.40
2019-03-21T20:18:20.716Z,6.30
2019-03-21T20:20:50.534Z,6.30
2019-03-21T20:23:20.461Z,6.20
2019-03-21T20:25:50.709Z,6.10
2019-03-21T20:28:20.235Z,6.10
2019-03-21T20:30:49.830Z,6.00
2019-03-21T20:33:19.375Z,6.00
2019-03-21T20:35:48.861Z,6.00
2019-03-21T20:38:18.281Z,6.00
2019-03-21T20:40:47.763Z,5.90
2019-03-21T20:43:17.618Z,5.90
2019-03-21T20:45:47.184Z,6.00
2019-03-21T20:48:16.642Z,6.00
2019-03-21T20:50:46.073Z,6.00
2019-03-21T20:53:15.874Z,5.90
2019-03-21T20:55:53.384Z,5.80
2019-03-21T20:58:17.202Z,5.90
2019-03-21T21:00:47.005Z,5.90
2019-03-21T21:03:16.618Z,5.80
2019-03-21T21:05:46.215Z,5.80
2019-03-21T21:08:15.689Z,5.80
2019-03-21T21:10:45.179Z,5.80
2019-03-21T21:13:14.678Z,5.70
2019-03-21T21:15:45.877Z,5.80
2019-03-21T21:18:15.360Z,5.70
2019-03-21T21:20:44.927Z,5.70
2019-03-21T21:23:14.740Z,5.70
2019-03-21T21:25:44.499Z,5.70
2019-03-21T21:28:13.967Z,5.60
2019-03-21T21:30:43.470Z,5.60
2019-03-21T21:33:13.324Z,5.70
2019-03-21T21:35:42.802Z,5.70
2019-03-21T21:38:12.289Z,5.70
2019-03-21T21:40:41.834Z,5.70
2019-03-21T21:43:11.293Z,5.70
2019-03-21T21:45:40.777Z,5.70
2019-03-21T21:48:10.259Z,5.60
2019-03-21T21:50:39.762Z,5.60
2019-03-21T21:53:09.698Z,5.50
2019-03-21T21:55:39.534Z,5.40
2019-03-21T21:58:09.035Z,5.30
2019-03-21T22:00:38.894Z,5.30
2019-03-21T22:03:08.354Z,5.20
2019-03-21T22:05:38.162Z,5.20
2019-03-21T22:08:08.181Z,5.00
2019-03-21T22:10:37.655Z,5.00
2019-03-21T22:13:07.175Z,4.90
2019-03-21T22:15:36.664Z,4.90
2019-03-21T22:18:06.257Z,4.90
2019-03-21T22:20:35.693Z,4.90
2019-03-21T22:23:05.275Z,4.90
2019-03-21T22:25:34.729Z,4.90
2019-03-21T22:28:04.187Z,4.90
2019-03-21T22:30:33.732Z,4.90
2019-03-21T22:33:03.586Z,4.90
2019-03-21T22:35:33.287Z,4.90
2019-03-21T22:38:02.897Z,4.90
2019-03-21T22:40:32.291Z,4.90
2019-03-21T22:43:01.788Z,4.80
2019-03-21T22:45:31.239Z,4.80
2019-03-21T22:48:00.714Z,4.80
2019-03-21T22:50:30.435Z,4.80
2019-03-21T22:52:59.929Z,4.80
2019-03-21T22:55:29.407Z,4.80
2019-03-21T22:57:58.937Z,4.70
2019-03-21T23:00:34.659Z,4.70
2019-03-21T23:03:04.556Z,4.60
2019-03-21T23:05:34.094Z,4.60
2019-03-21T23:08:03.522Z,4.50
2019-03-21T23:10:33.623Z,4.50
2019-03-21T23:13:03.710Z,4.40
2019-03-21T23:15:33.208Z,4.40
2019-03-21T23:18:02.675Z,4.40
2019-03-21T23:20:32.156Z,4.40
2019-03-21T23:23:01.722Z,4.40
2019-03-21T23:25:31.488Z,4.50
2019-03-21T23:28:01.068Z,4.50
2019-03-21T23:30:33.261Z,4.50
2019-03-21T23:33:01.804Z,4.40
2019-03-21T23:35:31.315Z,4.20
2019-03-21T23:38:00.869Z,4.20
2019-03-21T23:40:30.403Z,4.10
2019-03-21T23:42:59.907Z,4.10
2019-03-21T23:45:29.911Z,4.10
2019-03-21T23:47:59.399Z,4.00
2019-03-21T23:50:29.160Z,4.00
2019-03-21T23:52:58.639Z,4.00
2019-03-21T23:55:28.098Z,4.00
2019-03-21T23:57:57.512Z,4.00
